createdAt,value
2018-02-16T00:01:22.124Z,17.05
2018-02-16T00:03:47.869Z,17.95
2018-02-16T00:06:15.292Z,15.70
2018-02-16T00:08:40.988Z,14.90
2018-02-16T00:11:06.994Z,15.27
2018-02-16T00:13:32.945Z,17.73
2018-02-16T00:15:59.765Z,15.03
2018-02-16T00:18:25.660Z,14.68
2018-02-16T00:20:52.446Z,13.48
2018-02-16T00:23:18.480Z,13.90
2018-02-16T00:25:45.697Z,12.48
2018-02-16T00:28:12.086Z,15.25
2018-02-16T00:30:37.761Z,13.25
2018-02-16T00:33:04.417Z,15.87
2018-02-16T00:35:30.541Z,14.25
2018-02-16T00:37:57.383Z,11.80
2018-02-16T00:40:23.716Z,10.52
2018-02-16T00:42:50.164Z,12.35
2018-02-16T00:45:16.783Z,12.88
2018-02-16T00:47:42.792Z,8.43
2018-02-16T00:50:09.318Z,8.93
2018-02-16T00:52:34.988Z,8.73
2018-02-16T00:55:00.696Z,11.80
2018-02-16T00:57:27.208Z,6.33
2018-02-16T00:59:52.946Z,5.53
2018-02-16T01:02:19.605Z,3.57
2018-02-16T01:04:45.280Z,8.07
2018-02-16T01:07:11.810Z,6.43
2018-02-16T01:09:37.552Z,5.78
2018-02-16T01:12:04.163Z,3.63
2018-02-16T01:14:29.897Z,7.62
2018-02-16T01:16:55.575Z,9.87
2018-02-16T01:19:21.240Z,10.67
2018-02-16T01:21:46.924Z,7.10
2018-02-16T01:24:12.596Z,10.30
2018-02-16T01:26:38.268Z,7.37
2018-02-16T01:29:03.970Z,8.60
2018-02-16T01:31:29.632Z,8.90
2018-02-16T01:33:55.309Z,8.30
2018-02-16T01:36:20.993Z,9.67
2018-02-16T01:38:46.665Z,8.13
2018-02-16T01:41:12.345Z,5.20
2018-02-16T01:43:38.359Z,9.23
2018-02-16T01:46:04.037Z,7.75
2018-02-16T01:48:29.712Z,6.67
2018-02-16T01:50:55.393Z,9.10
2018-02-16T01:53:21.056Z,7.23
2018-02-16T01:55:46.720Z,7.77
2018-02-16T01:58:12.396Z,6.73
2018-02-16T02:00:38.077Z,4.07
2018-02-16T02:03:03.767Z,6.77
2018-02-16T02:05:29.440Z,3.07
2018-02-16T02:07:55.115Z,9.37
2018-02-16T02:10:20.818Z,7.70
2018-02-16T02:12:46.485Z,6.40
2018-02-16T02:15:12.162Z,9.57
2018-02-16T02:17:37.856Z,6.43
2018-02-16T02:20:03.534Z,7.30
2018-02-16T02:22:29.196Z,7.07
2018-02-16T02:24:54.885Z,10.20
2018-02-16T02:27:20.553Z,9.33
2018-02-16T02:29:46.233Z,9.10
2018-02-16T02:32:11.916Z,10.03
2018-02-16T02:34:37.592Z,8.00
2018-02-16T02:37:03.262Z,8.90
2018-02-16T02:39:28.956Z,5.70
2018-02-16T02:41:54.654Z,9.20
2018-02-16T02:44:20.324Z,6.00
2018-02-16T02:46:46.150Z,6.37
2018-02-16T02:49:11.837Z,9.17
2018-02-16T02:51:37.500Z,9.93
2018-02-16T02:54:03.192Z,12.27
2018-02-16T02:56:28.872Z,7.93
2018-02-16T02:58:54.549Z,9.33
2018-02-16T03:01:20.261Z,9.70
2018-02-16T03:03:45.952Z,9.00
2018-02-16T03:06:11.632Z,8.83
2018-02-16T03:08:37.493Z,10.03
2018-02-16T03:11:03.172Z,8.93
2018-02-16T03:13:28.836Z,6.40
2018-02-16T03:15:54.528Z,8.70
2018-02-16T03:18:20.192Z,9.83
2018-02-16T03:20:45.876Z,10.33
2018-02-16T03:23:11.796Z,9.90
2018-02-16T03:25:37.483Z,9.43
2018-02-16T03:28:03.153Z,10.63
2018-02-16T03:30:29.133Z,10.53
2018-02-16T03:32:54.804Z,11.40
2018-02-16T03:35:20.485Z,9.57
2018-02-16T03:37:46.486Z,6.40
2018-02-16T03:40:12.152Z,7.47
2018-02-16T03:42:37.840Z,10.53
2018-02-16T03:45:03.554Z,8.27
2018-02-16T03:47:29.219Z,9.57
2018-02-16T03:49:54.888Z,11.00
2018-02-16T03:52:20.780Z,10.57
2018-02-16T03:54:46.452Z,10.50
2018-02-16T03:57:12.167Z,8.23
2018-02-16T03:59:37.863Z,8.00
2018-02-16T04:02:03.536Z,10.37
2018-02-16T04:04:29.212Z,8.40
2018-02-16T04:06:54.900Z,4.03
2018-02-16T04:09:20.577Z,6.83
2018-02-16T04:11:46.262Z,6.70
2018-02-16T04:14:12.236Z,8.50
2018-02-16T04:16:37.914Z,7.40
2018-02-16T04:19:03.595Z,8.50
2018-02-16T04:21:29.301Z,7.53
2018-02-16T04:23:54.980Z,9.10
2018-02-16T04:26:20.652Z,9.23
2018-02-16T04:28:46.339Z,10.13
2018-02-16T04:31:12.018Z,9.20
2018-02-16T04:33:37.693Z,8.40
2018-02-16T04:36:03.575Z,7.63
2018-02-16T04:38:29.253Z,8.30
2018-02-16T04:40:54.921Z,5.60
2018-02-16T04:43:20.607Z,10.97
2018-02-16T04:45:46.273Z,9.93
2018-02-16T04:48:12.241Z,9.30
2018-02-16T04:50:37.924Z,8.07
2018-02-16T04:53:03.606Z,8.10
2018-02-16T04:55:29.268Z,8.80
2018-02-16T04:57:54.968Z,10.70
2018-02-16T05:00:20.650Z,9.87
2018-02-16T05:02:46.313Z,10.63
2018-02-16T05:05:11.996Z,9.97
2018-02-16T05:07:37.678Z,8.60
2018-02-16T05:10:03.360Z,7.10
2018-02-16T05:12:29.070Z,7.17
2018-02-16T05:14:54.745Z,9.70
2018-02-16T05:17:20.425Z,5.53
2018-02-16T05:19:46.105Z,6.20
2018-02-16T05:22:11.781Z,9.50
2018-02-16T05:24:37.445Z,6.77
2018-02-16T05:27:03.150Z,8.80
2018-02-16T05:29:28.832Z,12.40
2018-02-16T05:31:54.505Z,8.87
2018-02-16T05:34:20.200Z,7.87
2018-02-16T05:36:45.873Z,6.57
2018-02-16T05:39:11.548Z,6.47
2018-02-16T05:41:37.243Z,11.33
2018-02-16T05:44:02.920Z,7.67
2018-02-16T05:46:28.576Z,11.80
2018-02-16T05:48:54.251Z,12.17
2018-02-16T05:51:19.916Z,6.70
2018-02-16T05:53:45.965Z,7.37
2018-02-16T05:56:11.634Z,6.07
2018-02-16T05:58:37.314Z,10.50
2018-02-16T06:01:03.017Z,9.60
2018-02-16T06:03:28.693Z,12.87
2018-02-16T06:05:54.369Z,8.40
2018-02-16T06:08:20.256Z,11.90
2018-02-16T06:10:45.929Z,13.07
2018-02-16T06:13:11.605Z,7.50
2018-02-16T06:15:37.297Z,10.77
2018-02-16T06:18:02.973Z,11.00
2018-02-16T06:20:28.653Z,6.47
2018-02-16T06:22:54.351Z,9.10
2018-02-16T06:25:20.025Z,9.60
2018-02-16T06:27:45.704Z,7.20
2018-02-16T06:30:11.394Z,5.83
2018-02-16T06:32:37.066Z,4.87
2018-02-16T06:35:02.749Z,8.10
2018-02-16T06:37:28.428Z,10.47
2018-02-16T06:39:54.101Z,9.83
2018-02-16T06:42:19.774Z,8.43
2018-02-16T06:44:45.469Z,9.43
2018-02-16T06:47:11.141Z,7.20
2018-02-16T06:49:36.823Z,8.63
2018-02-16T06:52:02.773Z,6.53
2018-02-16T06:54:28.448Z,7.90
2018-02-16T06:56:54.124Z,6.07
2018-02-16T06:59:19.995Z,6.63
2018-02-16T07:01:45.666Z,6.70
2018-02-16T07:04:11.351Z,8.53
2018-02-16T07:06:37.039Z,8.30
2018-02-16T07:09:02.732Z,8.03
2018-02-16T07:11:28.411Z,4.87
2018-02-16T07:13:54.100Z,6.20
2018-02-16T07:16:19.780Z,6.60
2018-02-16T07:18:45.460Z,5.43
2018-02-16T07:21:11.161Z,9.97
2018-02-16T07:23:36.828Z,6.00
2018-02-16T07:26:02.526Z,10.60
2018-02-16T07:28:28.520Z,11.33
2018-02-16T07:30:54.216Z,9.27
2018-02-16T07:33:19.911Z,10.30
2018-02-16T07:35:45.615Z,14.60
2018-02-16T07:38:11.277Z,11.67
2018-02-16T07:40:36.945Z,7.40
2018-02-16T07:43:02.629Z,8.30
2018-02-16T07:45:28.313Z,16.13
2018-02-16T07:47:53.992Z,11.07
2018-02-16T07:50:19.656Z,7.40
2018-02-16T07:52:45.359Z,6.20
2018-02-16T07:55:11.030Z,8.37
2018-02-16T07:57:36.732Z,12.90
2018-02-16T08:00:02.436Z,11.00
2018-02-16T08:02:28.103Z,10.60
2018-02-16T08:04:53.797Z,7.77
2018-02-16T08:07:19.509Z,11.60
2018-02-16T08:09:45.181Z,34.73
2018-02-16T08:12:10.861Z,8.40
2018-02-16T08:14:36.553Z,12.40
2018-02-16T08:17:02.224Z,9.00
2018-02-16T08:19:27.908Z,7.57
2018-02-16T08:21:53.600Z,9.33
2018-02-16T08:24:19.288Z,8.10
2018-02-16T08:26:45.350Z,11.50
2018-02-16T08:29:11.016Z,9.73
2018-02-16T08:31:36.711Z,10.70
2018-02-16T08:34:02.397Z,7.67
2018-02-16T08:36:28.067Z,6.90
2018-02-16T08:38:53.746Z,11.77
2018-02-16T08:41:19.452Z,11.27
2018-02-16T08:43:45.121Z,12.40
2018-02-16T08:46:10.797Z,12.57
2018-02-16T08:48:36.492Z,9.27
2018-02-16T08:51:02.176Z,11.67
2018-02-16T08:53:27.852Z,11.60
2018-02-16T08:55:53.561Z,5.90
2018-02-16T08:58:19.235Z,7.47
2018-02-16T09:00:44.905Z,8.73
2018-02-16T09:03:10.611Z,9.90
2018-02-16T09:05:36.285Z,11.67
2018-02-16T09:08:01.985Z,8.40
2018-02-16T09:10:27.946Z,5.47
2018-02-16T09:12:53.638Z,8.30
2018-02-16T09:15:19.329Z,7.63
2018-02-16T09:17:45.010Z,10.30
2018-02-16T09:20:10.681Z,5.60
2018-02-16T09:22:36.444Z,9.60
2018-02-16T09:25:02.140Z,10.00
2018-02-16T09:27:27.973Z,8.77
2018-02-16T09:29:54.594Z,12.87
2018-02-16T09:32:20.305Z,7.62
2018-02-16T09:34:45.980Z,10.70
2018-02-16T09:37:11.949Z,5.60
2018-02-16T09:39:38.664Z,9.10
2018-02-16T09:42:04.338Z,9.00
2018-02-16T09:44:30.032Z,7.60
2018-02-16T09:46:55.741Z,7.93
2018-02-16T09:49:21.735Z,10.37
2018-02-16T09:51:47.448Z,5.43
2018-02-16T09:54:13.117Z,4.67
2018-02-16T09:56:38.807Z,11.10
2018-02-16T09:59:04.514Z,7.40
2018-02-16T10:01:30.205Z,4.80
2018-02-16T10:03:55.893Z,7.77
2018-02-16T10:06:21.589Z,7.37
2018-02-16T10:08:47.604Z,6.30
2018-02-16T10:11:15.055Z,6.72
2018-02-16T10:13:42.589Z,8.68
2018-02-16T10:16:08.819Z,7.72
2018-02-16T10:18:35.003Z,6.90
2018-02-16T10:21:00.973Z,6.32
2018-02-16T10:23:26.665Z,5.80
2018-02-16T10:25:52.341Z,6.20
2018-02-16T10:28:18.061Z,7.17
2018-02-16T10:30:43.732Z,7.13
2018-02-16T10:33:16.470Z,7.60
2018-02-16T10:35:42.166Z,7.55
2018-02-16T10:38:07.839Z,8.57
2018-02-16T10:40:33.529Z,10.13
2018-02-16T10:42:59.203Z,8.90
2018-02-16T10:45:24.889Z,5.70
2018-02-16T10:47:50.893Z,3.20
2018-02-16T10:50:16.580Z,9.70
2018-02-16T10:52:42.245Z,4.87
2018-02-16T10:55:07.957Z,6.07
2018-02-16T10:57:33.645Z,5.50
2018-02-16T10:59:59.333Z,6.97
2018-02-16T11:02:31.163Z,9.27
2018-02-16T11:05:02.950Z,7.68
2018-02-16T11:07:34.962Z,6.20
2018-02-16T11:10:00.644Z,3.28
2018-02-16T11:12:26.335Z,7.30
2018-02-16T11:14:52.024Z,10.30
2018-02-16T11:17:17.705Z,6.77
2018-02-16T11:19:43.386Z,7.40
2018-02-16T11:22:09.564Z,8.10
2018-02-16T11:24:35.245Z,5.28
2018-02-16T11:27:00.924Z,7.80
2018-02-16T11:29:26.610Z,7.83
2018-02-16T11:31:52.285Z,5.77
2018-02-16T11:34:17.976Z,14.47
2018-02-16T11:36:43.654Z,4.97
2018-02-16T11:39:09.329Z,5.60
2018-02-16T11:41:35.290Z,8.10
2018-02-16T11:44:01.002Z,8.43
2018-02-16T11:46:26.685Z,6.23
2018-02-16T11:48:52.952Z,2.80
2018-02-16T11:51:18.666Z,4.93
2018-02-16T11:53:44.339Z,5.50
2018-02-16T11:56:10.193Z,4.90
2018-02-16T11:58:35.872Z,5.23
2018-02-16T12:01:01.562Z,4.80
2018-02-16T12:03:27.256Z,3.80
2018-02-16T12:05:52.948Z,3.50
2018-02-16T12:08:18.613Z,4.20
2018-02-16T12:10:44.327Z,4.87
2018-02-16T12:13:10.014Z,7.03
2018-02-16T12:15:35.726Z,3.87
2018-02-16T12:18:01.469Z,6.10
2018-02-16T12:20:27.162Z,18.00
2018-02-16T12:22:55.398Z,4.17
2018-02-16T12:25:21.154Z,5.80
2018-02-16T12:27:46.828Z,5.90
2018-02-16T12:30:12.509Z,5.90
2018-02-16T12:32:38.511Z,6.40
2018-02-16T12:35:04.241Z,4.68
2018-02-16T12:37:30.118Z,5.60
2018-02-16T12:39:55.832Z,3.20
2018-02-16T12:42:21.660Z,6.90
2018-02-16T12:44:47.420Z,11.53
2018-02-16T12:47:13.415Z,8.07
2018-02-16T12:49:39.106Z,5.90
2018-02-16T12:52:05.373Z,7.50
2018-02-16T12:54:31.160Z,8.13
2018-02-16T12:56:57.503Z,18.37
2018-02-16T12:59:23.240Z,15.85
2018-02-16T13:01:48.971Z,6.57
2018-02-16T13:04:14.672Z,7.43
2018-02-16T13:06:40.352Z,7.47
2018-02-16T13:09:06.172Z,5.07
2018-02-16T13:11:31.869Z,4.30
2018-02-16T13:13:58.210Z,3.93
2018-02-16T13:16:23.929Z,5.32
2018-02-16T13:18:50.109Z,4.87
2018-02-16T13:21:15.841Z,4.78
2018-02-16T13:23:41.745Z,2.80
2018-02-16T13:26:07.446Z,3.07
2018-02-16T13:28:33.140Z,4.17
2018-02-16T13:30:58.869Z,3.93
2018-02-16T13:33:24.572Z,7.63
2018-02-16T13:35:50.261Z,4.27
2018-02-16T13:38:15.989Z,4.90
2018-02-16T13:40:41.677Z,19.47
2018-02-16T13:43:07.369Z,3.30
2018-02-16T13:45:33.087Z,8.50
2018-02-16T13:47:58.816Z,5.63
2018-02-16T13:50:24.506Z,5.60
2018-02-16T13:52:50.323Z,6.07
2018-02-16T13:55:16.030Z,3.80
2018-02-16T13:57:41.721Z,4.97
2018-02-16T14:00:07.444Z,4.30
2018-02-16T14:02:33.133Z,4.17
2018-02-16T14:04:58.840Z,25.93
2018-02-16T14:07:24.559Z,6.47
2018-02-16T14:09:50.284Z,4.80
2018-02-16T14:12:16.873Z,4.53
2018-02-16T14:14:42.874Z,9.53
2018-02-16T14:17:08.581Z,2.90
2018-02-16T14:19:34.253Z,5.40
2018-02-16T14:21:59.934Z,8.40
2018-02-16T14:24:25.618Z,6.80
2018-02-16T14:26:51.326Z,4.20
2018-02-16T14:29:17.533Z,4.80
2018-02-16T14:31:43.213Z,3.80
2018-02-16T14:34:08.892Z,3.80
2018-02-16T14:36:34.866Z,5.83
2018-02-16T14:39:00.642Z,4.12
2018-02-16T14:41:28.047Z,2.60
2018-02-16T14:43:53.733Z,4.30
2018-02-16T14:46:20.045Z,3.20
2018-02-16T14:48:47.496Z,3.87
2018-02-16T14:51:13.365Z,3.65
2018-02-16T14:53:39.050Z,3.40
2018-02-16T14:56:04.774Z,3.30
2018-02-16T14:58:30.478Z,4.90
2018-02-16T15:00:56.266Z,3.10
2018-02-16T15:03:21.917Z,2.63
2018-02-16T15:05:47.589Z,3.37
2018-02-16T15:08:13.420Z,3.47
2018-02-16T15:10:39.105Z,2.23
2018-02-16T15:13:04.793Z,2.20
2018-02-16T15:15:30.477Z,2.30
2018-02-16T15:17:56.370Z,3.10
2018-02-16T15:20:22.041Z,3.77
2018-02-16T15:22:48.760Z,4.12
2018-02-16T15:25:15.117Z,3.23
2018-02-16T15:27:40.814Z,4.32
2018-02-16T15:30:07.118Z,2.90
2018-02-16T15:32:32.801Z,2.60
2018-02-16T15:34:58.862Z,3.87
2018-02-16T15:37:24.577Z,2.00
2018-02-16T15:39:50.253Z,2.40
2018-02-16T15:42:16.301Z,4.13
2018-02-16T15:44:42.010Z,2.83
2018-02-16T15:47:08.039Z,2.00
2018-02-16T15:49:33.719Z,4.05
2018-02-16T15:51:59.692Z,3.23
2018-02-16T15:54:25.433Z,3.12
2018-02-16T15:56:51.119Z,3.93
2018-02-16T15:59:16.805Z,2.80
2018-02-16T16:01:42.521Z,3.33
2018-02-16T16:04:08.209Z,3.90
2018-02-16T16:06:33.877Z,2.57
2018-02-16T16:08:59.594Z,1.60
2018-02-16T16:11:25.277Z,3.07
2018-02-16T16:13:50.968Z,3.10
2018-02-16T16:16:16.656Z,3.57
2018-02-16T16:18:42.345Z,2.63
2018-02-16T16:21:08.017Z,2.60
2018-02-16T16:23:33.700Z,3.00
2018-02-16T16:25:59.402Z,1.17
2018-02-16T16:28:25.122Z,3.13
2018-02-16T16:30:50.834Z,2.83
2018-02-16T16:33:16.512Z,2.23
2018-02-16T16:35:42.476Z,2.37
2018-02-16T16:38:08.145Z,6.43
2018-02-16T16:40:33.818Z,3.90
2018-02-16T16:42:59.525Z,3.00
2018-02-16T16:45:25.218Z,2.70
2018-02-16T16:47:50.899Z,2.43
2018-02-16T16:50:16.875Z,2.47
2018-02-16T16:52:42.564Z,3.17
2018-02-16T16:55:08.241Z,3.47
2018-02-16T16:57:33.953Z,2.80
2018-02-16T16:59:59.629Z,3.73
2018-02-16T17:02:25.310Z,3.17
2018-02-16T17:04:51.025Z,3.50
2018-02-16T17:07:16.697Z,3.67
2018-02-16T17:09:42.390Z,2.30
2018-02-16T17:12:08.107Z,3.53
2018-02-16T17:14:33.789Z,3.30
2018-02-16T17:16:59.480Z,2.60
2018-02-16T17:19:25.175Z,3.60
2018-02-16T17:21:50.872Z,5.10
2018-02-16T17:24:16.561Z,3.60
2018-02-16T17:26:42.241Z,2.73
2018-02-16T17:29:07.926Z,2.70
2018-02-16T17:31:33.632Z,4.00
2018-02-16T17:33:59.308Z,3.20
2018-02-16T17:36:25.003Z,2.60
2018-02-16T17:38:50.685Z,2.93
2018-02-16T17:41:16.356Z,2.93
2018-02-16T17:43:42.024Z,4.77
2018-02-16T17:46:07.706Z,2.80
2018-02-16T17:48:33.388Z,2.60
2018-02-16T17:50:59.089Z,3.83
2018-02-16T17:53:25.075Z,2.27
2018-02-16T17:55:50.753Z,2.40
2018-02-16T17:58:16.456Z,3.33
2018-02-16T18:00:42.325Z,3.23
2018-02-16T18:03:08.016Z,2.90
2018-02-16T18:05:33.717Z,2.30
2018-02-16T18:07:59.392Z,2.87
2018-02-16T18:10:25.068Z,3.27
2018-02-16T18:12:50.749Z,1.50
2018-02-16T18:15:16.723Z,1.57
2018-02-16T18:17:42.399Z,2.23
2018-02-16T18:20:08.089Z,2.47
2018-02-16T18:22:33.785Z,4.00
2018-02-16T18:24:59.539Z,2.87
2018-02-16T18:27:25.209Z,2.03
2018-02-16T18:29:50.895Z,3.40
2018-02-16T18:32:16.936Z,2.83
2018-02-16T18:34:42.617Z,3.78
2018-02-16T18:37:08.304Z,4.00
2018-02-16T18:39:33.997Z,5.23
2018-02-16T18:41:59.669Z,4.53
2018-02-16T18:44:25.357Z,2.33
2018-02-16T18:46:52.366Z,3.23
2018-02-16T18:49:18.114Z,4.00
2018-02-16T18:51:43.785Z,5.50
2018-02-16T18:54:09.465Z,4.27
2018-02-16T18:56:35.252Z,2.33
2018-02-16T18:59:00.924Z,4.17
2018-02-16T19:01:26.611Z,4.03
2018-02-16T19:03:52.680Z,3.67
2018-02-16T19:06:18.361Z,3.67
2018-02-16T19:08:44.049Z,4.30
2018-02-16T19:11:09.945Z,4.43
2018-02-16T19:13:35.621Z,3.47
2018-02-16T19:16:01.301Z,2.87
2018-02-16T19:18:27.008Z,4.33
2018-02-16T19:20:52.700Z,5.83
2018-02-16T19:23:18.410Z,3.60
2018-02-16T19:25:44.105Z,5.00
2018-02-16T19:28:09.777Z,3.00
2018-02-16T19:30:35.462Z,3.87
2018-02-16T19:33:01.141Z,4.40
2018-02-16T19:35:27.395Z,8.07
2018-02-16T19:37:53.117Z,2.90
2018-02-16T19:40:19.236Z,4.70
2018-02-16T19:42:44.966Z,3.05
2018-02-16T19:45:10.649Z,2.60
2018-02-16T19:47:36.332Z,3.60
2018-02-16T19:50:02.108Z,2.70
2018-02-16T19:52:27.817Z,2.47
2018-02-16T19:54:53.490Z,3.30
2018-02-16T19:57:19.288Z,2.47
2018-02-16T19:59:45.013Z,4.43
2018-02-16T20:02:10.685Z,4.90
2018-02-16T20:04:36.359Z,6.10
2018-02-16T20:07:02.418Z,2.90
2018-02-16T20:09:28.146Z,2.87
2018-02-16T20:11:53.820Z,3.93
2018-02-16T20:14:19.533Z,5.23
2018-02-16T20:16:45.203Z,4.00
2018-02-16T20:19:10.925Z,5.73
2018-02-16T20:21:36.677Z,5.03
2018-02-16T20:24:02.377Z,4.10
2018-02-16T20:26:28.078Z,3.20
2018-02-16T20:28:53.772Z,3.50
2018-02-16T20:31:19.458Z,4.30
2018-02-16T20:33:45.149Z,3.00
2018-02-16T20:36:10.832Z,3.87
2018-02-16T20:38:36.523Z,4.90
2018-02-16T20:41:02.259Z,3.77
2018-02-16T20:43:27.951Z,5.57
2018-02-16T20:45:53.626Z,3.87
2018-02-16T20:48:19.324Z,4.80
2018-02-16T20:50:45.017Z,7.70
2018-02-16T20:53:10.698Z,3.87
2018-02-16T20:55:36.396Z,4.10
2018-02-16T20:58:02.073Z,4.30
2018-02-16T21:00:27.760Z,4.63
2018-02-16T21:02:53.493Z,5.30
2018-02-16T21:05:19.209Z,4.47
2018-02-16T21:07:44.903Z,3.60
2018-02-16T21:10:10.620Z,4.10
2018-02-16T21:12:36.340Z,3.90
2018-02-16T21:15:02.021Z,4.00
2018-02-16T21:17:27.696Z,4.47
2018-02-16T21:19:53.582Z,4.10
2018-02-16T21:22:19.289Z,4.80
2018-02-16T21:24:44.968Z,5.53
2018-02-16T21:27:10.920Z,3.50
2018-02-16T21:29:36.602Z,4.50
2018-02-16T21:32:02.293Z,3.80
2018-02-16T21:34:28.000Z,4.27
2018-02-16T21:36:53.665Z,4.27
2018-02-16T21:39:19.375Z,5.00
2018-02-16T21:41:45.065Z,4.00
2018-02-16T21:44:10.757Z,4.00
2018-02-16T21:46:36.452Z,5.50
2018-02-16T21:49:02.485Z,4.50
2018-02-16T21:51:28.161Z,5.68
2018-02-16T21:53:53.837Z,4.80
2018-02-16T21:56:19.546Z,4.20
2018-02-16T21:58:45.235Z,4.60
2018-02-16T22:01:10.921Z,4.43
2018-02-16T22:03:36.625Z,5.67
2018-02-16T22:06:02.305Z,5.50
2018-02-16T22:08:27.981Z,4.40
2018-02-16T22:10:53.705Z,5.20
2018-02-16T22:13:19.393Z,5.23
2018-02-16T22:15:45.076Z,5.43
2018-02-16T22:18:10.762Z,5.10
2018-02-16T22:20:36.467Z,6.67
2018-02-16T22:23:02.140Z,3.60
2018-02-16T22:25:27.816Z,4.33
2018-02-16T22:27:53.828Z,4.17
2018-02-16T22:30:19.504Z,5.60
2018-02-16T22:32:45.185Z,5.50
2018-02-16T22:35:10.898Z,5.33
2018-02-16T22:37:36.580Z,4.83
2018-02-16T22:40:02.293Z,5.90
2018-02-16T22:42:28.005Z,4.63
2018-02-16T22:44:53.691Z,6.10
2018-02-16T22:47:20.081Z,5.57
2018-02-16T22:49:46.101Z,6.32
2018-02-16T22:52:11.782Z,5.62
2018-02-16T22:54:37.464Z,7.00
2018-02-16T22:57:03.172Z,5.77
2018-02-16T22:59:28.962Z,5.40
2018-02-16T23:01:54.642Z,4.57
2018-02-16T23:04:20.709Z,6.27
2018-02-16T23:06:46.400Z,6.20
2018-02-16T23:09:12.081Z,6.53
2018-02-16T23:11:38.072Z,6.40
2018-02-16T23:14:03.763Z,5.10
2018-02-16T23:16:29.448Z,5.40
2018-02-16T23:18:55.150Z,5.80
2018-02-16T23:21:20.833Z,7.30
2018-02-16T23:23:46.517Z,4.40
2018-02-16T23:26:12.201Z,7.07
2018-02-16T23:28:37.922Z,6.00
2018-02-16T23:31:03.613Z,5.60
2018-02-16T23:33:29.301Z,5.47
2018-02-16T23:35:54.988Z,6.63
2018-02-16T23:38:20.661Z,5.30
2018-02-16T23:40:46.344Z,6.70
2018-02-16T23:43:12.093Z,6.20
2018-02-16T23:45:37.773Z,6.70
2018-02-16T23:48:03.448Z,4.50
2018-02-16T23:50:29.454Z,4.87
2018-02-16T23:52:55.467Z,5.78
2018-02-16T23:55:21.154Z,6.15
2018-02-16T23:57:46.846Z,6.70
